Flight Track Log - Related Links

Times and Time Zones

All times are in EDT time to prevent confusion due to time zone crossing. See the BAW272 flight status page for this flight to view local times or setup timezone preferences in your user account.

Time Position Orientation Groundspeed Altitude Reporting Facility
EDT Latitude Longitude Course Direction KTS MPH feet Rate Location/Type
Thu 01:24:40 AM 32.7667 -117.2667 335° Northwest 219 252 2,500  Level Southern California TRACON
Thu 01:25:54 AM 32.8483 -117.3128 339° North 245 282 5,300 2,060 Climbing Los Angeles Center
Thu 01:26:54 AM 32.9106 -117.3408 346° North 250 288 7,100 2,050 Climbing Los Angeles Center
Thu 01:27:54 AM 32.9878 -117.3642 47° Northeast 270 311 9,400 1,950 Climbing Los Angeles Center
Thu 01:28:54 AM 33.0447 -117.2908 59° Northeast 248 285 11,000 1,500 Climbing Los Angeles Center
Thu 01:29:54 AM 33.0978 -117.1872 58° Northeast 298 343 12,400 1,900 Climbing Los Angeles Center
Thu 01:30:54 AM 33.1531 -117.0814 58° Northeast 331 381 14,800 2,250 Climbing Los Angeles Center
Thu 01:31:54 AM 33.2103 -116.9703 50° Northeast 367 422 16,900 1,900 Climbing Los Angeles Center
Thu 01:32:54 AM 33.2861 -116.8617 38° Northeast 399 459 18,600 1,600 Climbing Los Angeles Center
Thu 01:33:54 AM 33.3847 -116.7706 55° Northeast 419 482 20,100 1,500 Climbing Los Angeles Center
Thu 01:34:54 AM 33.4561 -116.6464 66° East 439 505 21,600 1,450 Climbing Los Angeles Center
Thu 01:35:54 AM 33.5069 -116.5072 68° East 445 512 23,000 1,400 Climbing Los Angeles Center
Thu 01:36:54 AM 33.5553 -116.3631 67° East 452 520 24,400 1,328 Climbing Los Angeles Center
Thu 01:37:56 AM 33.6075 -116.2161 55° Northeast 464 534 25,700 1,091 Climbing Los Angeles Center
Thu 01:39:06 AM 33.7036 -116.0489 50° Northeast 483 556 26,800 554 Climbing Los Angeles Center
Thu 01:40:06 AM 33.7975 -115.9136 51° Northeast 512 589 26,900 450 Climbing Los Angeles Center
Thu 01:41:06 AM 33.8931 -115.7733 50° Northeast 523 602 27,700 1,000 Climbing Los Angeles Center
Thu 01:42:06 AM 33.9867 -115.6378 50° Northeast 528 608 28,900 1,200 Climbing Los Angeles Center
Thu 01:43:06 AM 34.0819 -115.4992 47° Northeast 528 608 30,100 1,050 Climbing Los Angeles Center
Thu 01:44:06 AM 34.1856 -115.3653 45° Northeast 528 608 31,000 850 Climbing Los Angeles Center
Thu 01:45:06 AM 34.2953 -115.2336 45° Northeast 539 620 31,800 850 Climbing Los Angeles Center
Thu 01:46:06 AM 34.4047 -115.0989 46° Northeast 544 626 32,700 600 Climbing Los Angeles Center
Thu 01:47:06 AM 34.5122 -114.9617 46° Northeast 549 632 33,000 150 Climbing Los Angeles Center
Thu 01:48:06 AM 34.6194 -114.8289 48° Northeast 549 632 33,000 700 Level Los Angeles Center
Thu 01:49:06 AM 34.7344 -114.6756 45° Northeast 549 632 34,400 900 Climbing Los Angeles Center
Thu 01:50:06 AM 34.8394 -114.5469 47° Northeast 544 626 34,800 300 Climbing Los Angeles Center
Thu 01:51:06 AM 34.9461 -114.4081 45° Northeast 544 626 35,000 100 Climbing Los Angeles Center
Thu 01:52:06 AM 35.0547 -114.2764 46° Northeast 539 620 35,000  Level Los Angeles Center
Thu 01:53:06 AM 35.1611 -114.1419 47° Northeast 539 620 35,000  Level Los Angeles Center
Thu 01:54:06 AM 35.2672 -114.0047 45° Northeast 539 620 35,000  Level Los Angeles Center
Thu 01:55:06 AM 35.3592 -113.8903 47° Northeast 533 613 35,000  Level Los Angeles Center
Thu 01:56:06 AM 35.4631 -113.7522 46° Northeast 533 613 35,000  Level Los Angeles Center
Thu 01:57:06 AM 35.5689 -113.6189 45° Northeast 538 619 35,000  Level Los Angeles Center
Thu 01:58:06 AM 35.6747 -113.4903 44° Northeast 538 619 35,000  Level Los Angeles Center
Thu 01:59:06 AM 35.7822 -113.3614 43° Northeast 533 613 35,000  Level Los Angeles Center
Thu 02:00:06 AM 35.8919 -113.2347 44° Northeast 528 608 35,000  Level Los Angeles Center
Thu 02:01:06 AM 36.0014 -113.1025 44° Northeast 533 613 35,000  Level Los Angeles Center
Thu 02:02:06 AM 36.1189 -112.9617 43° Northeast 533 613 35,000  Level Los Angeles Center
Thu 02:03:06 AM 36.2283 -112.8339 45° Northeast 538 619 35,000  Level Los Angeles Center
Thu 02:04:06 AM 36.3331 -112.7058 44° Northeast 538 619 35,000  Level Los Angeles Center
Thu 02:05:43 AM 36.5067 -112.4964 44° Northeast 545 627 35,000  Level Denver Center
Thu 02:06:43 AM 36.6136 -112.3656 44° Northeast 540 621 35,000  Level Denver Center
Thu 02:07:43 AM 36.7203 -112.2369 45° Northeast 540 621 35,000  Level Denver Center
Thu 02:08:43 AM 36.8292 -112.1031 44° Northeast 540 621 35,000  Level Denver Center
Thu 02:09:43 AM 36.9375 -111.9736 45° Northeast 540 621 35,000  Level Denver Center
Thu 02:10:43 AM 37.0331 -111.8536 44° Northeast 540 621 35,000  Level Denver Center
Thu 02:11:43 AM 37.1436 -111.7183 44° Northeast 540 621 35,000  Level Denver Center
Thu 02:12:43 AM 37.2539 -111.5856 45° Northeast 540 621 35,000  Level Denver Center
Thu 02:13:43 AM 37.3600 -111.4519 45° Northeast 545 627 35,000  Level Denver Center
Thu 02:14:43 AM 37.4681 -111.3156 44° Northeast 545 627 35,000  Level Denver Center
Thu 02:15:55 AM 37.5986 -111.1547 45° Northeast 546 628 35,000  Level Salt Lake Center
Thu 02:16:56 AM 37.7078 -111.0169 45° Northeast 547 629 35,000  Level Salt Lake Center
Thu 02:17:56 AM 37.8161 -110.8794 45° Northeast 546 628 35,000  Level Salt Lake Center
Thu 02:18:56 AM 37.9347 -110.7314 45° Northeast 544 626 35,000  Level Salt Lake Center
Thu 02:19:57 AM 38.0358 -110.6017 45° Northeast 542 624 35,000  Level Salt Lake Center
Thu 02:20:57 AM 38.1372 -110.4706 45° Northeast 543 625 35,000  Level Salt Lake Center
Thu 02:21:58 AM 38.2403 -110.3386 45° Northeast 546 628 35,000  Level Salt Lake Center
Thu 02:22:58 AM 38.3583 -110.1869 45° Northeast 542 624 35,000  Level Salt Lake Center
Thu 02:23:59 AM 38.4594 -110.0558 45° Northeast 542 624 35,000  Level Salt Lake Center
Thu 02:24:59 AM 38.5608 -109.9247 44° Northeast 542 624 35,000  Level Salt Lake Center
Thu 02:26:00 AM 38.6819 -109.7733 44° Northeast 544 626 35,000  Level Salt Lake Center
Thu 02:27:00 AM 38.7856 -109.6453 45° Northeast 543 625 35,000  Level Salt Lake Center
Thu 02:28:00 AM 38.8881 -109.5150 45° Northeast 542 624 35,000  Level Salt Lake Center
Thu 02:29:01 AM 39.0067 -109.3625 45° Northeast 540 621 35,000  Level Salt Lake Center
Thu 02:29:43 AM 39.0797 -109.2683 45° Northeast 539 620 35,000  Level Denver Center
Thu 02:30:43 AM 39.1722 -109.1489 45° Northeast 539 620 35,000  Level Denver Center
Thu 02:31:43 AM 39.2883 -108.9978 45° Northeast 539 620 35,000  Level Denver Center
Thu 02:32:43 AM 39.3956 -108.8592 46° Northeast 534 615 35,000  Level Denver Center
Thu 02:33:43 AM 39.4900 -108.7333 45° Northeast 539 620 35,000  Level Denver Center
Thu 02:34:43 AM 39.6097 -108.5783 44° Northeast 551 634 35,000  Level Denver Center
Thu 02:35:43 AM 39.7164 -108.4439 45° Northeast 540 621 35,000  Level Denver Center
Thu 02:36:43 AM 39.8122 -108.3169 46° Northeast 535 616 35,000  Level Denver Center
Thu 02:37:43 AM 39.9272 -108.1631 45° Northeast 530 610 35,000  Level Denver Center
Thu 02:38:43 AM 40.0333 -108.0244 46° Northeast 530 610 35,000  Level Denver Center
Thu 02:39:43 AM 40.1375 -107.8831 45° Northeast 530 610 35,000  Level Denver Center
Thu 02:40:43 AM 40.2328 -107.7572 47° Northeast 530 610 35,000  Level Denver Center
Thu 02:41:43 AM 40.3469 -107.5986 46° Northeast 530 610 35,000  Level Denver Center
Thu 02:42:43 AM 40.4506 -107.4583 46° Northeast 530 610 35,000  Level Denver Center
Thu 02:43:43 AM 40.5539 -107.3178 44° Northeast 530 610 35,000  Level Denver Center
Thu 02:44:43 AM 40.6483 -107.1986 48° Northeast 520 598 35,000  Level Denver Center
Thu 02:45:43 AM 40.7494 -107.0517 47° Northeast 520 598 35,000  Level Denver Center
Thu 02:46:43 AM 40.8625 -106.8933 46° Northeast 526 605 35,000  Level Denver Center
Thu 02:47:43 AM 40.9653 -106.7539 47° Northeast 526 605 35,000  Level Denver Center
Thu 02:48:43 AM 41.0675 -106.6083 46° Northeast 526 605 35,000  Level Denver Center
Thu 02:49:43 AM 41.1614 -106.4789 47° Northeast 526 605 35,000  Level Denver Center
Thu 02:50:43 AM 41.2719 -106.3186 44° Northeast 526 605 35,000  Level Denver Center
Thu 02:51:43 AM 41.3781 -106.1800 47° Northeast 540 621 35,000  Level Denver Center
Thu 02:52:55 AM 41.4817 -106.0300 51° Northeast 535 616 35,000  Level Denver Center
Thu 02:53:55 AM 41.5831 -105.8600 55° Northeast 530 610 35,000  Level Denver Center
Thu 02:54:55 AM 41.6778 -105.6756 53° Northeast 536 617 35,000  Level Denver Center
Thu 02:55:55 AM 41.7664 -105.5158 54° Northeast 536 617 35,000  Level Denver Center
Thu 02:56:55 AM 41.8442 -105.3697 54° Northeast 536 617 35,000  Level Denver Center
Thu 02:57:57 AM 41.9505 -105.1730 54° Northeast 537 618 35,000  Level FlightAware ADS-B
Thu 02:58:27 AM 41.9942 -105.0910 54° Northeast 537 618 35,000  Level FlightAware ADS-B
Thu 02:58:57 AM 42.0378 -105.0100 54° Northeast 535 616 35,000  Level FlightAware ADS-B
Thu 02:59:28 AM 42.0812 -104.9280 54° Northeast 533 613 35,000  Level FlightAware ADS-B
Thu 03:00:11 AM 42.1433 -104.8110 54° Northeast 531 611 35,000  Level FlightAware ADS-B
Thu 03:00:41 AM 42.1865 -104.7300 54° Northeast 529 609 35,000  Level FlightAware ADS-B
Thu 03:01:11 AM 42.2293 -104.6490 55° Northeast 529 609 35,000  Level FlightAware ADS-B
Thu 03:01:42 AM 42.2720 -104.5680 54° Northeast 529 609 35,000  Level FlightAware ADS-B
Thu 03:02:12 AM 42.3153 -104.4860 55° Northeast 528 608 35,000  Level FlightAware ADS-B
Thu 03:02:43 AM 42.3581 -104.4040 55° Northeast 529 609 35,000  Level FlightAware ADS-B
Thu 03:03:14 AM 42.4018 -104.3200 55° Northeast 529 609 35,000  Level FlightAware ADS-B
Thu 03:03:44 AM 42.4449 -104.2380 55° Northeast 531 611 35,000  Level FlightAware ADS-B
Thu 03:04:17 AM 42.4917 -104.1480 55° Northeast 534 615 35,000  Level FlightAware ADS-B
Thu 03:04:48 AM 42.5356 -104.0630 55° Northeast 536 617 35,000  Level FlightAware ADS-B
Thu 03:05:22 AM 42.5833 -103.9710 55° Northeast 537 618 35,000  Level FlightAware ADS-B
Thu 03:05:53 AM 42.6270 -103.8860 55° Northeast 537 618 35,000  Level FlightAware ADS-B
Thu 03:06:24 AM 42.6708 -103.8010 55° Northeast 535 616 35,000  Level FlightAware ADS-B
Thu 03:06:54 AM 42.7135 -103.7170 55° Northeast 535 616 35,000  Level FlightAware ADS-B
Thu 03:07:24 AM 42.7560 -103.6340 55° Northeast 535 616 35,000  Level FlightAware ADS-B
Thu 03:07:55 AM 42.7988 -103.5500 55° Northeast 535 616 35,000  Level FlightAware ADS-B
Thu 03:08:25 AM 42.8416 -103.4660 55° Northeast 533 613 35,000  Level FlightAware ADS-B
Thu 03:08:56 AM 42.8840 -103.3820 56° Northeast 531 611 35,000  Level FlightAware ADS-B
Thu 03:09:26 AM 42.9262 -103.2980 55° Northeast 529 609 35,000  Level FlightAware ADS-B
Thu 03:10:00 AM 42.9735 -103.2050 55° Northeast 528 608 35,000  Level FlightAware ADS-B
Thu 03:10:55 AM 43.0381 -103.0772 56° Northeast 524 603 35,000  Level Denver Center
Thu 03:11:55 AM 43.1206 -102.9106 56° Northeast 528 608 35,000  Level Denver Center
Thu 03:12:55 AM 43.2108 -102.7261 56° Northeast 523 602 35,000  Level Denver Center
Thu 03:13:55 AM 43.2908 -102.5614 55° Northeast 522 601 35,000  Level Denver Center
Thu 03:14:55 AM 43.3669 -102.4111 57° Northeast 522 601 35,000  Level Denver Center
Thu 03:17:20 AM 43.5619 -102.0025 58° Northeast 525 604 35,000  Level Minneapolis Center
Thu 03:18:20 AM 43.6400 -101.8300 57° Northeast 530 610 35,000  Level Minneapolis Center
Thu 03:19:20 AM 43.7194 -101.6600 57° Northeast 530 610 35,000  Level Minneapolis Center
Thu 03:20:20 AM 43.8011 -101.4869 58° Northeast 530 610 35,000  Level Minneapolis Center
Thu 03:21:20 AM 43.8783 -101.3131 57° Northeast 530 610 35,000  Level Minneapolis Center
Thu 03:22:20 AM 43.9569 -101.1417 58° Northeast 524 603 35,000  Level Minneapolis Center
Thu 03:23:20 AM 44.0333 -100.9725 58° Northeast 519 597 35,000  Level Minneapolis Center
Thu 03:24:20 AM 44.1094 -100.7997 57° Northeast 519 597 35,000  Level Minneapolis Center
Thu 03:25:20 AM 44.1875 -100.6300 59° Northeast 519 597 35,000  Level Minneapolis Center
Thu 03:26:20 AM 44.2608 -100.4592 58° Northeast 514 592 35,000  Level Minneapolis Center
Thu 03:27:20 AM 44.3361 -100.2881 58° Northeast 514 592 35,000  Level Minneapolis Center
Thu 03:28:20 AM 44.4114 -100.1164 59° Northeast 514 592 35,000  Level Minneapolis Center
Thu 03:29:20 AM 44.4861 -99.9444 59° Northeast 514 592 35,000  Level Minneapolis Center
Thu 03:30:20 AM 44.5608 -99.7692 59° Northeast 509 586 35,000  Level Minneapolis Center
Thu 03:31:20 AM 44.6331 -99.5989 59° Northeast 515 593 35,000  Level Minneapolis Center
Thu 03:32:20 AM 44.7164 -99.4061 59° Northeast 515 593 35,000  Level Minneapolis Center
Thu 03:33:20 AM 44.7878 -99.2378 60° Northeast 504 580 35,000  Level Minneapolis Center
Thu 03:34:20 AM 44.8592 -99.0664 59° Northeast 504 580 35,000  Level Minneapolis Center
Thu 03:35:20 AM 44.9300 -98.8972 59° Northeast 504 580 35,000  Level Minneapolis Center
Thu 03:36:20 AM 45.0006 -98.7306 60° Northeast 499 574 35,000  Level Minneapolis Center
Thu 03:37:20 AM 45.0711 -98.5578 59° Northeast 499 574 35,000  Level Minneapolis Center
Thu 03:38:20 AM 45.1433 -98.3847 61° Northeast 499 574 35,000  Level Minneapolis Center
Thu 03:39:20 AM 45.2089 -98.2194 57° Northeast 488 562 35,000  Level Minneapolis Center
Thu 03:40:20 AM 45.2689 -98.0856 62° Northeast 483 556 35,000  Level Minneapolis Center
Thu 03:41:20 AM 45.3364 -97.9050 61° Northeast 483 556 35,000  Level Minneapolis Center
Thu 03:42:20 AM 45.4014 -97.7386 60° Northeast 478 550 35,000  Level Minneapolis Center
Thu 03:43:20 AM 45.4703 -97.5692 60° Northeast 478 550 35,000  Level Minneapolis Center
Thu 03:44:20 AM 45.5433 -97.3878 61° Northeast 483 556 35,000  Level Minneapolis Center
Thu 03:45:20 AM 45.6075 -97.2200 60° Northeast 478 550 35,000  Level Minneapolis Center
Thu 03:46:20 AM 45.6733 -97.0550 61° Northeast 478 550 35,000  Level Minneapolis Center
Thu 03:47:20 AM 45.7389 -96.8867 62° Northeast 478 550 35,000  Level Minneapolis Center
Thu 03:48:20 AM 45.8047 -96.7119 60° Northeast 483 556 35,000  Level Minneapolis Center
Thu 03:49:20 AM 45.8628 -96.5664 61° Northeast 483 556 35,000  Level Minneapolis Center
Thu 03:50:20 AM 45.9278 -96.3969 62° Northeast 478 550 35,000  Level Minneapolis Center
Thu 03:51:20 AM 45.9906 -96.2239 60° Northeast 478 550 35,000  Level Minneapolis Center
Thu 03:52:20 AM 46.0569 -96.0597 61° Northeast 478 550 35,000  Level Minneapolis Center
Thu 03:53:20 AM 46.1233 -95.8892 63° Northeast 478 550 35,000  Level Minneapolis Center
Thu 03:54:20 AM 46.1853 -95.7150 61° Northeast 478 550 35,000  Level Minneapolis Center
Thu 03:55:20 AM 46.2556 -95.5286 63° Northeast 478 550 35,000  Level Minneapolis Center
Thu 03:56:20 AM 46.3189 -95.3508 62° Northeast 478 550 35,000  Level Minneapolis Center
Thu 03:57:20 AM 46.3822 -95.1783 63° Northeast 484 557 35,000  Level Minneapolis Center
Thu 03:58:20 AM 46.4453 -94.9994 63° Northeast 484 557 35,000  Level Minneapolis Center
Thu 03:59:20 AM 46.5078 -94.8233 62° Northeast 484 557 35,000  Level Minneapolis Center
Thu 04:00:20 AM 46.5722 -94.6469 63° Northeast 484 557 35,000  Level Minneapolis Center
Thu 04:01:20 AM 46.6344 -94.4669 62° Northeast 484 557 35,000  Level Minneapolis Center
Thu 04:02:20 AM 46.6986 -94.2894 62° Northeast 484 557 35,000  Level Minneapolis Center
Thu 04:03:20 AM 46.7642 -94.1058 63° Northeast 489 563 35,000  Level Minneapolis Center
Thu 04:04:20 AM 46.8256 -93.9275 63° Northeast 489 563 35,000  Level Minneapolis Center
Thu 04:05:20 AM 46.8867 -93.7489 64° Northeast 489 563 35,000  Level Minneapolis Center
Thu 04:06:20 AM 46.9472 -93.5667 63° Northeast 489 563 35,000  Level Minneapolis Center
Thu 04:07:20 AM 47.0100 -93.3872 64° Northeast 489 563 35,000  Level Minneapolis Center
Thu 04:08:20 AM 47.0658 -93.2197 64° Northeast 495 570 35,000  Level Minneapolis Center
Thu 04:09:20 AM 47.1278 -93.0333 64° Northeast 495 570 35,000  Level Minneapolis Center
Thu 04:10:20 AM 47.1894 -92.8497 64° Northeast 495 570 35,000  Level Minneapolis Center
Thu 04:11:20 AM 47.2508 -92.6656 64° Northeast 495 570 35,000  Level Minneapolis Center
Thu 04:12:20 AM 47.3119 -92.4778 64° Northeast 495 570 35,000  Level Minneapolis Center
Thu 04:13:20 AM 47.3728 -92.2928 64° Northeast 495 570 35,000  Level Minneapolis Center
Thu 04:14:20 AM 47.4333 -92.1075 64° Northeast 495 570 35,000  Level Minneapolis Center
Thu 04:15:20 AM 47.4956 -91.9217 65° Northeast 495 570 35,000  Level Minneapolis Center
Thu 04:16:20 AM 47.5556 -91.7322 65° Northeast 490 564 35,000  Level Minneapolis Center
Thu 04:17:20 AM 47.6150 -91.5425 64° Northeast 490 564 35,000  Level Minneapolis Center
Thu 04:18:20 AM 47.6761 -91.3522 65° Northeast 495 570 35,000  Level Minneapolis Center
Thu 04:19:20 AM 47.7372 -91.1586 66° East 500 575 35,000  Level Minneapolis Center
Thu 04:20:20 AM 47.7956 -90.9644 66° East 505 581 35,000  Level Minneapolis Center
Thu 04:21:20 AM 47.8539 -90.7731 66° East 505 581 35,000  Level Minneapolis Center
Thu 04:22:20 AM 47.9119 -90.5811 64° Northeast 505 581 35,000  Level Minneapolis Center
Thu 04:23:20 AM 47.9756 -90.3853 66° East 505 581 35,000  Level Minneapolis Center
Thu 04:24:20 AM 48.0386 -90.1767 66° East 505 581 35,000  Level Minneapolis Center
Thu 04:25:20 AM 48.0975 -89.9803 79° East 516 594 35,000  Level Minneapolis Center
Thu 04:26:29 AM 48.1333 -89.7000 65° Northeast 530 610 35,000  Level Winnipeg Center
Thu 04:27:29 AM 48.2000 -89.4833 53° Northeast 530 610 35,000  Level Winnipeg Center
Thu 04:28:29 AM 48.2833 -89.3167 63° Northeast 520 598 35,000  Level Winnipeg Center
Thu 04:29:29 AM 48.3500 -89.1167 59° Northeast 520 598 35,000  Level Winnipeg Center
Thu 04:30:29 AM 48.4167 -88.9500 61° Northeast 510 587 35,000  Level Winnipeg Center
Thu 04:31:29 AM 48.4833 -88.7667 63° Northeast 510 587 35,000  Level Winnipeg Center
Thu 04:32:29 AM 48.5500 -88.5667 55° Northeast 520 598 35,000  Level Winnipeg Center
Thu 04:33:29 AM 48.6333 -88.3833 58° Northeast 520 598 35,000  Level Winnipeg Center
Thu 04:34:29 AM 48.7167 -88.1833 59° Northeast 520 598 35,000  Level Winnipeg Center
Thu 04:35:29 AM 48.7833 -88.0167 61° Northeast 520 598 35,000  Level Winnipeg Center
Thu 04:36:29 AM 48.8500 -87.8333 63° Northeast 510 587 35,000  Level Winnipeg Center
Thu 04:37:29 AM 48.9167 -87.6333 58° Northeast 510 587 35,000  Level Winnipeg Center
Thu 04:38:29 AM 49.0000 -87.4333 59° Northeast 510 587 35,000  Level Winnipeg Center
Thu 04:39:29 AM 49.0667 -87.2667 67° East 500 575 35,000  Level Winnipeg Center
Thu 04:40:29 AM 49.1167 -87.0833 57° Northeast 500 575 35,000  Level Winnipeg Center
Thu 04:41:29 AM 49.2000 -86.8833 52° Northeast 510 587 35,000  Level Winnipeg Center
Thu 04:42:29 AM 49.2833 -86.7167 63° Northeast 510 587 35,000  Level Winnipeg Center
Thu 04:43:29 AM 49.3500 -86.5167 63° Northeast 510 587 35,000  Level Winnipeg Center
Thu 04:44:29 AM 49.4167 -86.3167 67° East 510 587 35,000  Level Winnipeg Center
Thu 04:45:29 AM 49.4667 -86.1333 63° Northeast 510 587 35,000  Level Winnipeg Center
Thu 04:46:29 AM 49.5333 -85.9333 58° Northeast 510 587 35,000  Level Winnipeg Center
Thu 04:47:29 AM 49.6000 -85.7667 63° Northeast 510 587 35,000  Level Winnipeg Center
Thu 04:48:29 AM 49.6667 -85.5667 57° Northeast 510 587 35,000  Level Winnipeg Center
Thu 04:49:29 AM 49.7500 -85.3667 61° Northeast 510 587 35,000  Level Winnipeg Center
Thu 04:50:29 AM 49.8167 -85.1833 64° Northeast 510 587 35,000  Level Winnipeg Center
Thu 04:51:29 AM 49.8833 -84.9667 60° Northeast 510 587 35,000  Level Winnipeg Center
Thu 04:52:29 AM 49.9500 -84.7833 63° Northeast 510 587 35,000  Level Winnipeg Center
Thu 04:53:29 AM 50.0167 -84.5833 62° Northeast 510 587 35,000  Level Winnipeg Center
Thu 04:54:29 AM 50.0833 -84.3833 60° Northeast 510 587 35,000  Level Winnipeg Center
Thu 04:55:29 AM 50.1500 -84.2000 62° Northeast 510 587 35,000  Level Winnipeg Center
Thu 04:56:29 AM 50.2167 -84.0000 69° East 510 587 35,000  Level Winnipeg Center
Thu 04:57:29 AM 50.2667 -83.8000 62° Northeast 510 587 35,000  Level Winnipeg Center
Thu 04:58:29 AM 50.3333 -83.6000 62° Northeast 510 587 35,000  Level Winnipeg Center
Thu 04:59:29 AM 50.4000 -83.4000 67° East 510 587 35,000  Level Winnipeg Center
Thu 05:00:29 AM 50.4500 -83.2167 59° Northeast 510 587 35,000  Level Winnipeg Center
Thu 05:01:29 AM 50.5333 -83.0000 68° East 510 587 35,000  Level Winnipeg Center
Thu 05:02:29 AM 50.5833 -82.8000 62° Northeast 510 587 35,000  Level Winnipeg Center
Thu 05:03:29 AM 50.6500 -82.6000 60° Northeast 510 587 35,000  Level Winnipeg Center
Thu 05:04:29 AM 50.7167 -82.4167 64° Northeast 510 587 35,000  Level Winnipeg Center
Thu 05:05:29 AM 50.7833 -82.2000 62° Northeast 510 587 35,000  Level Winnipeg Center
Thu 05:06:29 AM 50.8500 -82.0000 67° East 510 587 35,000  Level Winnipeg Center
Thu 05:07:29 AM 50.9000 -81.8167 71° East 510 587 35,000  Level Winnipeg Center
Thu 05:08:29 AM 50.9500 -81.5833 60° Northeast 520 598 35,000  Level Winnipeg Center
Thu 05:09:29 AM 51.0167 -81.4000 64° Northeast 520 598 35,000  Level Winnipeg Center
Thu 05:10:29 AM 51.0833 -81.1833 64° Northeast 520 598 35,000  Level Winnipeg Center
Thu 05:11:29 AM 51.1500 -80.9667 68° East 520 598 35,000  Level Winnipeg Center
Thu 05:12:29 AM 51.2000 -80.7667 64° Northeast 520 598 35,000  Level Winnipeg Center
Thu 05:13:29 AM 51.2667 -80.5500 56° Northeast 520 598 35,000  Level Winnipeg Center
Thu 05:14:29 AM 51.3500 -80.3500 60° Northeast 520 598 35,000  Level Winnipeg Center
Thu 05:15:29 AM 51.4167 -80.1667 51° Northeast 510 587 35,000  Level Winnipeg Center
Thu 05:16:29 AM 51.5000 -80.0000 64° Northeast 510 587 35,000  Level Winnipeg Center
Thu 05:17:29 AM 51.5667 -79.7833 62° Northeast 510 587 35,000  Level Winnipeg Center
Thu 05:18:29 AM 51.6333 -79.5833 56° Northeast 510 587 35,000  Level Winnipeg Center
Thu 05:19:29 AM 51.7167 -79.3833 59° Northeast 510 587 35,000  Level Winnipeg Center
Thu 05:20:29 AM 51.7833 -79.2000 56° Northeast 510 587 35,000  Level Winnipeg Center
Thu 05:21:29 AM 51.8667 -79.0000 56° Northeast 520 598 35,000  Level Winnipeg Center
Thu 05:22:29 AM 51.9500 -78.8000 43° Northeast 520 598 35,000  Level Winnipeg Center
Thu 05:23:41 AM 52.0500 -78.6500 59° Northeast 510 587 35,000  Level Montreal Center
Thu 05:24:41 AM 52.1167 -78.4667 61° Northeast 510 587 35,000  Level Montreal Center
Thu 05:25:41 AM 52.1833 -78.2667 58° Northeast 510 587 35,000  Level Montreal Center
Thu 05:26:41 AM 52.2667 -78.0500 63° Northeast 510 587 35,000  Level Montreal Center
Thu 05:27:41 AM 52.3333 -77.8333 53° Northeast 510 587 35,000  Level Montreal Center
Thu 05:28:41 AM 52.4167 -77.6500 63° Northeast 510 587 35,000  Level Montreal Center
Thu 05:29:41 AM 52.4833 -77.4333 56° Northeast 510 587 35,000  Level Montreal Center
Thu 05:30:41 AM 52.5667 -77.2333 59° Northeast 500 575 35,000  Level Montreal Center
Thu 05:31:41 AM 52.6333 -77.0500 61° Northeast 500 575 35,000  Level Montreal Center
Thu 05:32:41 AM 52.7000 -76.8500 63° Northeast 500 575 35,000  Level Montreal Center
Thu 05:33:41 AM 52.7667 -76.6333 61° Northeast 500 575 35,000  Level Montreal Center
Thu 05:34:41 AM 52.8333 -76.4333 59° Northeast 500 575 35,000  Level Montreal Center
Thu 05:35:41 AM 52.9000 -76.2500 61° Northeast 500 575 35,000  Level Montreal Center
Thu 05:36:41 AM 52.9667 -76.0500 65° Northeast 500 575 35,000  Level Montreal Center
Thu 05:37:41 AM 53.0333 -75.8167 59° Northeast 500 575 35,000  Level Montreal Center
Thu 05:38:41 AM 53.1000 -75.6333 64° Northeast 500 575 35,000  Level Montreal Center
Thu 05:39:41 AM 53.1667 -75.4000 61° Northeast 510 587 35,000  Level Montreal Center
Thu 05:40:41 AM 53.2333 -75.2000 57° Northeast 510 587 35,000  Level Montreal Center
Thu 05:41:41 AM 53.3167 -74.9833 61° Northeast 510 587 35,000  Level Montreal Center
Thu 05:42:41 AM 53.3833 -74.7833 61° Northeast 510 587 35,000  Level Montreal Center
Thu 05:43:41 AM 53.4500 -74.5833 64° Northeast 510 587 35,000  Level Montreal Center
Thu 05:44:41 AM 53.5167 -74.3500 61° Northeast 510 587 35,000  Level Montreal Center
Thu 05:45:41 AM 53.5833 -74.1500 61° Northeast 510 587 35,000  Level Montreal Center
Thu 05:46:41 AM 53.6500 -73.9500 67° East 510 587 35,000  Level Montreal Center
Thu 05:47:41 AM 53.7000 -73.7500 57° Northeast 500 575 35,000  Level Montreal Center
Thu 05:48:41 AM 53.7833 -73.5333 44° Northeast 510 587 35,000  Level Montreal Center
Thu 05:49:41 AM 53.8833 -73.3667 52° Northeast 510 587 35,000  Level Montreal Center
Thu 05:50:41 AM 53.9667 -73.1833 50° Northeast 510 587 35,000  Level Montreal Center
Thu 05:51:41 AM 54.0667 -72.9833 52° Northeast 510 587 35,000  Level Montreal Center
Thu 05:52:41 AM 54.1500 -72.8000 52° Northeast 510 587 35,000  Level Montreal Center
Thu 05:53:41 AM 54.2500 -72.5833 49° Northeast 510 587 35,000  Level Montreal Center
Thu 05:54:41 AM 54.3333 -72.4167 47° Northeast 510 587 35,000  Level Montreal Center
Thu 05:55:41 AM 54.4333 -72.2333 52° Northeast 510 587 35,000  Level Montreal Center
Thu 05:56:41 AM 54.5167 -72.0500 56° Northeast 510 587 35,000  Level Montreal Center
Thu 05:57:41 AM 54.6000 -71.8333 47° Northeast 510 587 35,000  Level Montreal Center
Thu 05:58:41 AM 54.7000 -71.6500 52° Northeast 510 587 35,000  Level Montreal Center
Thu 05:59:41 AM 54.7833 -71.4667 52° Northeast 510 587 35,000  Level Montreal Center
Thu 06:00:41 AM 54.8667 -71.2833 51° Northeast 510 587 35,000  Level Montreal Center
Thu 06:01:41 AM 54.9667 -71.0667 52° Northeast 510 587 35,000  Level Montreal Center
Thu 06:02:41 AM 55.0500 -70.8833 49° Northeast 500 575 35,000  Level Montreal Center
Thu 06:03:41 AM 55.1500 -70.6833 57° Northeast 510 587 35,000  Level Montreal Center
Thu 06:04:41 AM 55.2167 -70.5000 46° Northeast 510 587 35,000  Level Montreal Center
Thu 06:05:41 AM 55.3167 -70.3167 63° Northeast 510 587 35,000  Level Montreal Center
Thu 06:06:41 AM 55.3833 -70.0833 46° Northeast 510 587 35,000  Level Montreal Center
Thu 06:07:41 AM 55.4833 -69.9000 54° Northeast 510 587 35,000  Level Montreal Center
Thu 06:08:41 AM 55.5667 -69.7000 46° Northeast 510 587 35,000  Level Montreal Center
Thu 06:09:41 AM 55.6667 -69.5167 63° Northeast 510 587 35,000  Level Montreal Center
Thu 06:10:41 AM 55.7333 -69.2833 46° Northeast 510 587 35,000  Level Montreal Center
Thu 06:11:41 AM 55.8333 -69.1000 57° Northeast 510 587 35,000  Level Montreal Center
Thu 06:12:41 AM 55.9167 -68.8667 53° Northeast 510 587 35,000  Level Montreal Center
Thu 06:13:41 AM 56.0000 -68.6667 53° Northeast 510 587 35,000  Level Montreal Center
Thu 06:14:41 AM 56.0833 -68.4667 55° Northeast 510 587 35,000  Level Montreal Center
Thu 06:15:41 AM 56.1667 -68.2500 53° Northeast 520 598 35,000  Level Montreal Center
Thu 06:16:41 AM 56.2500 -68.0500 48° Northeast 520 598 35,000  Level Montreal Center
Thu 06:17:41 AM 56.3500 -67.8500 63° Northeast 510 587 35,000  Level Montreal Center
Thu 06:18:41 AM 56.4167 -67.6167 53° Northeast 520 598 35,000  Level Montreal Center
Thu 06:19:41 AM 56.5000 -67.4167 55° Northeast 530 610 35,000  Level Montreal Center
Thu 06:20:41 AM 56.5833 -67.2000 57° Northeast 510 587 35,000  Level Montreal Center
Thu 06:21:41 AM 56.6667 -66.9667 57° Northeast 520 598 35,000  Level Montreal Center
Thu 06:22:41 AM 56.7500 -66.7333 48° Northeast 520 598 35,000  Level Montreal Center
Thu 06:23:41 AM 56.8500 -66.5333 59° Northeast 530 610 35,000 -350 Level Montreal Center
Thu 06:24:41 AM 56.9333 -66.2833 47° Northeast 530 610 34,300 -1,041 Descending Montreal Center
Thu 06:25:19 AM 56.9500 -66.2500 54° Northeast 520 598 33,300 -796 Descending Gander Center
Thu 06:26:19 AM 57.0500 -66.0000 54° Northeast 540 621 33,000 -150 Descending Gander Center
Thu 06:27:19 AM 57.1500 -65.7500 60° Northeast 540 621 33,000  Level Gander Center
Thu 06:28:19 AM 57.2167 -65.5333 56° Northeast 540 621 33,000  Level Gander Center
Thu 06:29:19 AM 57.3000 -65.3000 58° Northeast 540 621 33,000  Level Gander Center
Thu 06:30:19 AM 57.3833 -65.0500 52° Northeast 530 610 33,000  Level Gander Center
Thu 06:31:19 AM 57.4667 -64.8500 58° Northeast 540 621 33,000  Level Gander Center
Thu 06:32:19 AM 57.5500 -64.6000 56° Northeast 530 610 33,000  Level Gander Center
Thu 06:33:19 AM 57.6333 -64.3667 63° Northeast 540 621 33,000  Level Gander Center
Thu 06:34:19 AM 57.7000 -64.1167 47° Northeast 540 621 33,000  Level Gander Center
Thu 06:35:19 AM 57.8000 -63.9167 63° Northeast 540 621 33,000  Level Gander Center
Thu 06:36:19 AM 57.8667 -63.6667 58° Northeast 550 633 33,000  Level Gander Center
Thu 06:37:19 AM 57.9500 -63.4167 58° Northeast 550 633 33,000  Level Gander Center
Thu 06:38:19 AM 58.0333 -63.1667 53° Northeast 550 633 33,000  Level Gander Center
Thu 06:39:19 AM 58.1333 -62.9167 63° Northeast 550 633 33,000  Level Gander Center
Thu 06:40:19 AM 58.2000 -62.6667 58° Northeast 550 633 33,000  Level Gander Center
Thu 06:41:19 AM 58.2833 -62.4167 63° Northeast 550 633 33,000  Level Gander Center
Thu 06:42:19 AM 58.3500 -62.1667 57° Northeast 550 633 33,000  Level Gander Center
Thu 06:43:19 AM 58.4333 -61.9167 57° Northeast 550 633 33,000  Level Gander Center
Thu 06:44:19 AM 58.5167 -61.6667 63° Northeast 550 633 33,000  Level Gander Center
Thu 06:45:19 AM 58.5833 -61.4167 59° Northeast 560 644 33,000  Level Gander Center
Thu 06:46:19 AM 58.6667 -61.1500 61° Northeast 560 644 33,000  Level Gander Center
Thu 06:47:19 AM 58.7667 -60.8000 60° Northeast 560 644 33,000  Level Gander Center
Thu 06:48:19 AM 58.8167 -60.6333 60° Northeast 560 644 33,000  Level Gander Center
Thu 06:49:19 AM 58.9000 -60.3500 59° Northeast 570 656 33,000  Level Gander Center
Thu 06:50:19 AM 58.9833 -60.0833 63° Northeast 570 656 33,000  Level Gander Center
Thu 06:51:19 AM 59.0500 -59.8333 72° East 570 656 33,000  Level Gander Center
Thu 06:52:19 AM 59.1000 -59.5333 59° Northeast 570 656 33,000  Level Gander Center
Thu 06:53:19 AM 59.1833 -59.2667 66° East 570 656 33,000  Level Gander Center
Thu 06:54:19 AM 59.2500 -58.9667 64° Northeast 570 656 33,000  Level Gander Center
Thu 06:55:19 AM 59.3167 -58.7000 66° East 570 656 33,000  Level Gander Center
Thu 06:56:19 AM 59.3833 -58.4000 64° Northeast 570 656 33,000  Level Gander Center
Thu 06:57:19 AM 59.4500 -58.1333 64° Northeast 570 656 33,000  Level Gander Center
Thu 06:58:19 AM 59.5167 -57.8667 66° East 570 656 33,000  Level Gander Center
Thu 06:59:19 AM 59.5833 -57.5667 64° Northeast 570 656 33,000  Level Gander Center
Thu 07:00:19 AM 59.6500 -57.3000 72° East 570 656 33,000  Level Gander Center
Thu 07:01:19 AM 59.7000 -57.0000 60° Northeast 570 656 33,000  Level Gander Center
Thu 07:02:19 AM 59.7833 -56.7167 72° East 570 656 33,000  Level Gander Center
Thu 07:03:19 AM 59.8333 -56.4167 71° East 570 656 33,000  Level Gander Center
Thu 07:04:19 AM 59.8833 -56.1333 61° Northeast 570 656 33,000  Level Gander Center
Thu 07:05:19 AM 59.9667 -55.8333 70° East 570 656 33,000  Level Gander Center
Thu 07:06:19 AM 60.0167 -55.5500 69° East 570 656 33,000  Level Gander Center
Thu 07:07:19 AM 60.0667 -55.2833 72° East 570 656 33,000  Level Gander Center
Thu 07:08:19 AM 60.1167 -54.9667 59° Northeast 570 656 33,000  Level Gander Center
Thu 07:09:19 AM 60.2000 -54.6833 72° East 570 656 33,000  Level Gander Center
Thu 07:10:19 AM 60.2500 -54.3667 69° East 570 656 33,000  Level Gander Center
Thu 07:11:19 AM 60.3000 -54.1000 68° East 580 667 33,000  Level Gander Center
Thu 07:12:19 AM 60.3667 -53.7667 71° East 580 667 33,000  Level Gander Center
Thu 07:13:19 AM 60.4167 -53.4667 70° East 570 656 33,000  Level Gander Center
Thu 07:14:19 AM 60.4667 -53.1833 68° East 570 656 33,000  Level Gander Center
Thu 07:15:19 AM 60.5333 -52.8500 70° East 570 656 33,000  Level Gander Center
Thu 07:16:19 AM 60.5833 -52.5667 70° East 570 656 33,000  Level Gander Center
Thu 07:17:19 AM 60.6333 -52.2833 78° East 570 656 33,000  Level Gander Center
Thu 07:18:19 AM 60.6667 -51.9667 65° Northeast 570 656 33,000  Level Gander Center
Thu 07:19:19 AM 60.7333 -51.6667 72° East 570 656 33,000  Level Gander Center
Thu 07:20:19 AM 60.7833 -51.3500 70° East 560 644 33,000  Level Gander Center
Thu 07:21:19 AM 60.8333 -51.0667 77° East 560 644 33,000  Level Gander Center
Thu 07:22:19 AM 60.8667 -50.7667 66° East 560 644 33,000  Level Gander Center
Thu 07:23:19 AM 60.9333 -50.4500 71° East 570 656 33,000  Level Gander Center
Thu 07:24:19 AM 60.9833 -50.1500 78° East 570 656 33,000  Level Gander Center
Thu 07:25:19 AM 61.0167 -49.8333 71° East 570 656 33,000  Level Gander Center
Thu 07:26:19 AM 61.0667 -49.5333 78° East 570 656 33,000  Level Gander Center
Thu 07:27:19 AM 61.1000 -49.2000 76° East 570 656 33,000  Level Gander Center
Thu 07:28:19 AM 61.1333 -48.9167 73° East 570 656 33,000  Level Gander Center
Thu 07:29:19 AM 61.1833 -48.5833 76° East 570 656 33,000  Level Gander Center
Thu 07:30:47 AM 61.2333 -48.1500 71° East 570 656 33,000  Level Gander Center
Thu 07:31:47 AM 61.2833 -47.8500 78° East 570 656 33,000  Level Gander Center
Thu 07:32:47 AM 61.3167 -47.5167 72° East 570 656 33,000  Level Gander Center
Thu 07:33:47 AM 61.3667 -47.1833 77° East 570 656 33,000  Level Gander Center
Thu 07:34:47 AM 61.4000 -46.8833 78° East 570 656 33,000  Level Gander Center
Thu 07:35:47 AM 61.4333 -46.5500 77° East 570 656 33,000  Level Gander Center
Thu 07:36:47 AM 61.4667 -46.2500 78° East 570 656 33,000  Level Gander Center
Thu 07:37:47 AM 61.5000 -45.9167 78° East 570 656 33,000  Level Gander Center
Thu 07:38:47 AM 61.5333 -45.5833 77° East 570 656 33,000  Level Gander Center
Thu 07:39:47 AM 61.5667 -45.2833 79° East 570 656 33,000  Level Gander Center
Thu 07:40:47 AM 61.6000 -44.9333 77° East 570 656 33,000  Level Gander Center
Thu 07:41:47 AM 61.6333 -44.6333 84° East 570 656 33,000  Level Gander Center
Thu 07:42:47 AM 61.6500 -44.3000 71° East 570 656 33,000  Level Gander Center
Thu 07:43:19 AM 61.6833 -44.1000 78° East 570 656 33,000  Level Gander Center
Thu 07:44:19 AM 61.7167 -43.7667 83° East 570 656 33,000  Level Gander Center
Thu 07:45:19 AM 61.7333 -43.4667 78° East 570 656 33,000  Level Gander Center
Thu 07:46:19 AM 61.7667 -43.1333 77° East 570 656 33,000  Level Gander Center
Thu 07:47:19 AM 61.8000 -42.8167 84° East 570 656 33,000  Level Gander Center
Thu 07:48:19 AM 61.8167 -42.4833 84° East 570 656 33,000  Level Gander Center
Thu 07:49:19 AM 61.8333 -42.1333 77° East 570 656 33,000  Level Gander Center
Thu 07:50:19 AM 61.8667 -41.8333 78° East 570 656 33,000  Level Gander Center
Thu 07:51:19 AM 61.9000 -41.4833 85° East 570 656 33,000  Level Gander Center
Thu 07:52:47 AM 61.9167 -41.0333 70° East 570 656 33,000  Level Gander Center
Thu 07:53:19 AM 61.9500 -40.8333 84° East 570 656 33,000  Level Gander Center
Thu 07:54:19 AM 61.9667 -40.5000 84° East 580 667 33,000  Level Gander Center
Thu 07:55:19 AM 61.9833 -40.1500 83° East 570 656 33,000  Level Gander Center
Thu 07:56:19 AM 62.0000 -39.8333 96° East 570 656 33,000  Level Gander Center
Thu 07:57:19 AM 61.9833 -39.4833 103° East 580 667 33,000  Level Gander Center
Thu 07:58:19 AM 61.9500 -39.1833 96° East 580 667 33,000  Level Gander Center
Thu 07:59:19 AM 61.9333 -38.8333 96° East 580 667 33,000  Level Gander Center
Thu 08:00:19 AM 61.9167 -38.5000 96° East 580 667 33,000  Level Gander Center
Thu 08:01:19 AM 61.9000 -38.1500 102° East 580 667 33,000  Level Gander Center
Thu 08:03:19 AM 61.8333 -37.5000 101° East 580 667 33,000  Level Gander Center
Thu 08:04:19 AM 61.8000 -37.1500 96° East 580 667 33,000  Level Gander Center
Thu 08:05:19 AM 61.7833 -36.8333 102° East 580 667 33,000  Level Gander Center
Thu 08:06:19 AM 61.7500 -36.5000 102° East 580 667 33,000  Level Gander Center
Thu 08:07:19 AM 61.7167 -36.1833 96° East 580 667 33,000  Level Gander Center
Thu 08:08:19 AM 61.7000 -35.8333 102° East 580 667 33,000  Level Gander Center
Thu 08:09:19 AM 61.6667 -35.5167 103° East 580 667 33,000  Level Gander Center
Thu 08:10:19 AM 61.6333 -35.2167 101° East 580 667 33,000 15 Level Gander Center
Thu 08:18:15 AM 61.3692 -32.9094 103° East  Level FlightAware Approximate
Thu 08:19:15 AM 61.3330 -32.6212 103° East  Level FlightAware Approximate
Thu 08:20:15 AM 61.2961 -32.3337 104° East  Level FlightAware Approximate
Thu 08:21:15 AM 61.2586 -32.0468 104° East  Level FlightAware Approximate
Thu 08:22:15 AM 61.2206 -31.7607 104° East  Level FlightAware Approximate
Thu 08:23:15 AM 61.1819 -31.4752 104° East  Level FlightAware Approximate
Thu 08:24:15 AM 61.1427 -31.1905 105° East  Level FlightAware Approximate
Thu 08:25:15 AM 61.1028 -30.9064 105° East  Level FlightAware Approximate
Thu 08:26:15 AM 61.0623 -30.6231 105° East  Level FlightAware Approximate
Thu 08:27:15 AM 61.0213 -30.3405 105° East  Level FlightAware Approximate
Thu 08:28:15 AM 60.9796 -30.0587 106° East  Level FlightAware Approximate
Thu 08:29:15 AM 60.9675 -29.7879 106° East  Level FlightAware Approximate
Thu 08:30:15 AM 60.9271 -29.5058 106° East  Level FlightAware Approximate
Thu 08:31:15 AM 60.8861 -29.2244 106° East  Level FlightAware Approximate
Thu 08:32:15 AM 60.8445 -28.9438 107° East  Level FlightAware Approximate
Thu 08:33:15 AM 60.8023 -28.6638 107° East  Level FlightAware Approximate
Thu 08:34:15 AM 60.7595 -28.3846 107° East  Level FlightAware Approximate
Thu 08:35:15 AM 60.7161 -28.1062 107° East  Level FlightAware Approximate
Thu 08:36:15 AM 60.6722 -27.8285 108° East  Level FlightAware Approximate
Thu 08:37:15 AM 60.6277 -27.5515 108° East  Level FlightAware Approximate
Thu 08:38:15 AM 60.5826 -27.2754 108° East  Level FlightAware Approximate
Thu 08:39:15 AM 60.5369 -27.0000 108° East  Level FlightAware Approximate
Thu 08:40:15 AM 60.4907 -26.7254 109° East  Level FlightAware Approximate
Thu 08:41:15 AM 60.4440 -26.4516 109° East  Level FlightAware Approximate
Thu 08:42:15 AM 60.3966 -26.1785 109° East  Level FlightAware Approximate
Thu 08:43:15 AM 60.3487 -25.9063 109° East  Level FlightAware Approximate
Thu 08:44:15 AM 60.3003 -25.6349 110° East  Level FlightAware Approximate
Thu 08:45:15 AM 60.2513 -25.3643 110° East  Level FlightAware Approximate
Thu 08:46:15 AM 60.2017 -25.0944 110° East  Level FlightAware Approximate
Thu 08:47:15 AM 60.1516 -24.8255 110° East  Level FlightAware Approximate
Thu 08:48:15 AM 60.1010 -24.5573 110° East  Level FlightAware Approximate
Thu 08:49:15 AM 60.0498 -24.2899 111° Southeast  Level FlightAware Approximate
Thu 08:50:15 AM 59.9981 -24.0234 111° Southeast  Level FlightAware Approximate
Thu 08:51:15 AM 59.9459 -23.7578 111° Southeast  Level FlightAware Approximate
Thu 08:52:15 AM 59.8931 -23.4929 111° Southeast  Level FlightAware Approximate
Thu 08:53:15 AM 59.8398 -23.2289 112° Southeast  Level FlightAware Approximate
Thu 08:54:15 AM 59.7859 -22.9658 112° Southeast  Level FlightAware Approximate
Thu 08:55:15 AM 59.7316 -22.7035 112° Southeast  Level FlightAware Approximate
Thu 08:56:15 AM 59.6767 -22.4421 112° Southeast  Level FlightAware Approximate
Thu 08:57:15 AM 59.6213 -22.1815 112° Southeast  Level FlightAware Approximate
Thu 08:58:15 AM 59.5654 -21.9218 113° Southeast  Level FlightAware Approximate
Thu 08:59:15 AM 59.5089 -21.6630 113° Southeast  Level FlightAware Approximate
Thu 09:00:15 AM 59.4520 -21.4050 113° Southeast  Level FlightAware Approximate
Thu 09:01:15 AM 59.3946 -21.1479 113° Southeast  Level FlightAware Approximate
Thu 09:02:15 AM 59.3366 -20.8916 114° Southeast  Level FlightAware Approximate
Thu 09:03:15 AM 59.2781 -20.6363 114° Southeast  Level FlightAware Approximate
Thu 09:04:15 AM 59.2192 -20.3818 114° Southeast  Level FlightAware Approximate
Thu 09:05:15 AM 59.1598 -20.1282 114° Southeast  Level FlightAware Approximate
Thu 09:06:15 AM 59.0998 -19.8755 114° Southeast  Level FlightAware Approximate
Thu 09:07:15 AM 59.0406 -19.6226 115° Southeast  Level FlightAware Approximate
Thu 09:08:15 AM 58.9808 -19.3706 115° Southeast  Level FlightAware Approximate
Thu 09:09:15 AM 58.9206 -19.1195 115° Southeast  Level FlightAware Approximate
Thu 09:10:15 AM 58.8599 -18.8692 115° Southeast  Level FlightAware Approximate
Thu 09:11:15 AM 58.7987 -18.6199 115° Southeast  Level FlightAware Approximate
Thu 09:12:15 AM 58.7370 -18.3714 116° Southeast  Level FlightAware Approximate
Thu 09:13:15 AM 58.6748 -18.1238 116° Southeast  Level FlightAware Approximate
Thu 09:14:15 AM 58.6122 -17.8770 116° Southeast  Level FlightAware Approximate
Thu 09:15:15 AM 58.5491 -17.6312 116° Southeast  Level FlightAware Approximate
Thu 09:16:15 AM 58.4855 -17.3862 116° Southeast  Level FlightAware Approximate
Thu 09:17:15 AM 58.4215 -17.1422 117° Southeast  Level FlightAware Approximate
Thu 09:18:15 AM 58.3570 -16.8990 117° Southeast  Level FlightAware Approximate
Thu 09:19:15 AM 58.2921 -16.6567 117° Southeast  Level FlightAware Approximate
Thu 09:20:15 AM 58.2267 -16.4153 117° Southeast  Level FlightAware Approximate
Thu 09:21:15 AM 58.1608 -16.1748 118° Southeast  Level FlightAware Approximate
Thu 09:22:15 AM 58.0945 -15.9352 118° Southeast  Level FlightAware Approximate
Thu 09:23:15 AM 58.0277 -15.6965 118° Southeast  Level FlightAware Approximate
Thu 09:24:15 AM 57.9605 -15.4587 118° Southeast  Level FlightAware Approximate
Thu 09:25:15 AM 57.8929 -15.2218 118° Southeast  Level FlightAware Approximate
Thu 09:26:15 AM 57.8248 -14.9857 119° Southeast  Level FlightAware Approximate
Thu 09:27:15 AM 57.7562 -14.7506 119° Southeast  Level FlightAware Approximate
Thu 09:28:15 AM 57.6873 -14.5163 119° Southeast  Level FlightAware Approximate
Thu 09:29:15 AM 57.6179 -14.2829 119° Southeast  Level FlightAware Approximate
Thu 09:30:15 AM 57.5481 -14.0505 119° Southeast  Level FlightAware Approximate
Thu 09:31:15 AM 57.4778 -13.8189 120° Southeast  Level FlightAware Approximate
Thu 09:32:15 AM 57.4072 -13.5882 120° Southeast  Level FlightAware Approximate
Thu 09:33:15 AM 57.3361 -13.3584 120° Southeast  Level FlightAware Approximate
Thu 09:34:15 AM 57.2646 -13.1295 120° Southeast  Level FlightAware Approximate
Thu 09:35:15 AM 57.1926 -12.9015 120° Southeast  Level FlightAware Approximate
Thu 09:36:15 AM 57.1203 -12.6743 120° Southeast  Level FlightAware Approximate
Thu 09:37:15 AM 57.0476 -12.4481 121° Southeast  Level FlightAware Approximate
Thu 09:38:15 AM 56.9744 -12.2228 121° Southeast  Level FlightAware Approximate
Thu 09:39:15 AM 56.9009 -11.9983 121° Southeast  Level FlightAware Approximate
Thu 09:40:15 AM 56.8269 -11.7747 121° Southeast  Level FlightAware Approximate
Thu 09:41:15 AM 56.7526 -11.5520 121° Southeast  Level FlightAware Approximate
Thu 09:42:15 AM 56.6778 -11.3302 122° Southeast  Level FlightAware Approximate
Thu 09:43:15 AM 56.6027 -11.1093 122° Southeast  Level FlightAware Approximate
Thu 09:44:15 AM 56.5272 -10.8892 122° Southeast  Level FlightAware Approximate
Thu 09:45:15 AM 56.4513 -10.6700 122° Southeast  Level FlightAware Approximate
Thu 09:46:15 AM 56.3750 -10.4517 122° Southeast  Level FlightAware Approximate
Thu 09:47:15 AM 56.2983 -10.2343 122° Southeast  Level FlightAware Approximate
Thu 09:48:15 AM 56.2212 -10.0177 123° Southeast  Level FlightAware Approximate
Thu 09:49:15 AM 56.1123 -9.8921 122° Southeast  Level FlightAware Approximate
Thu 09:50:15 AM 56.0286 -9.6848 122° Southeast  Level FlightAware Approximate
Thu 09:51:15 AM 55.9445 -9.4784 122° Southeast  Level FlightAware Approximate
Thu 09:52:15 AM 55.8601 -9.2728 122° Southeast  Level FlightAware Approximate
Thu 09:53:15 AM 55.7753 -9.0682 122° Southeast  Level FlightAware Approximate
Thu 09:54:15 AM 55.6902 -8.8644 122° Southeast  Level FlightAware Approximate
Thu 09:55:15 AM 55.6048 -8.6615 122° Southeast  Level FlightAware Approximate
Thu 09:56:15 AM 55.5190 -8.4596 122° Southeast  Level FlightAware Approximate
Thu 09:57:15 AM 55.4329 -8.2584 122° Southeast  Level FlightAware Approximate
Thu 09:58:15 AM 55.3465 -8.0582 122° Southeast  Level FlightAware Approximate
Thu 09:59:15 AM 55.2597 -7.8589 122° Southeast  Level FlightAware Approximate
Thu 10:00:15 AM 55.1726 -7.6604 122° Southeast  Level FlightAware Approximate
Thu 10:01:15 AM 55.0852 -7.4627 122° Southeast  Level FlightAware Approximate
Thu 10:02:15 AM 54.9975 -7.2660 122° Southeast  Level FlightAware Approximate
Thu 10:03:15 AM 54.9095 -7.0701 122° Southeast  Level FlightAware Approximate
Thu 10:04:15 AM 54.8211 -6.8751 122° Southeast  Level FlightAware Approximate
Thu 10:05:15 AM 54.7325 -6.6809 121° Southeast  Level FlightAware Approximate
Thu 10:06:15 AM 54.6435 -6.4875 121° Southeast  Level FlightAware Approximate
Thu 10:07:15 AM 54.5542 -6.2950 121° Southeast  Level FlightAware Approximate
Thu 10:08:15 AM 54.4646 -6.1034 120° Southeast  Level FlightAware Approximate
Thu 10:09:15 AM 54.3747 -5.9126 120° Southeast  Level FlightAware Approximate
Thu 10:10:15 AM 54.2846 -5.7226 119° Southeast  Level FlightAware Approximate
Thu 10:11:15 AM 54.1941 -5.5335 118° Southeast  Level FlightAware Approximate
Thu 10:12:15 AM 54.1033 -5.3451 117° Southeast  Level FlightAware Approximate
Thu 10:13:15 AM 54.0122 -5.1576 116° Southeast  Level FlightAware Approximate
Thu 10:19:21 AM 53.4233 -3.2078 126° Southeast 487 560 35,000  Level FlightAware ADS-B
Thu 10:19:56 AM 53.3776 -3.1008 126° Southeast 487 560 35,000  Level FlightAware ADS-B
Thu 10:20:27 AM 53.3365 -3.0057 126° Southeast 488 562 35,000  Level FlightAware ADS-B
Thu 10:21:08 AM 53.2827 -2.8813 126° Southeast 488 562 35,000  Level FlightAware ADS-B
Thu 10:21:38 AM 53.2426 -2.7888 126° Southeast 488 562 35,000  Level FlightAware ADS-B
Thu 10:22:10 AM 53.2012 -2.6942 131° Southeast 487 560 35,000  Level FlightAware ADS-B
Thu 10:23:18 AM 53.1020 -2.5021 149° Southeast 481 554 35,000  Level FlightAware ADS-B
Thu 10:23:46 AM 53.0495 -2.4501 158° South 475 547 35,000 -442 Level FlightAware ADS-B
Thu 10:24:53 AM 52.9124 -2.3600 158° South 472 543 34,300 -1,271 Descending FlightAware ADS-B
Thu 10:25:44 AM 52.8103 -2.2929 154° Southeast 472 543 32,500 -2,080 Descending FlightAware ADS-B
Thu 10:26:08 AM 52.7650 -2.2557 149° Southeast 465 535 31,700 -2,069 Descending FlightAware ADS-B
Thu 10:26:42 AM 52.7033 -2.1934 148° Southeast 460 529 30,500 -2,082 Descending FlightAware ADS-B
Thu 10:26:57 AM 52.6760 -2.1658 149° Southeast 455 524 30,000 -2,087 Descending FlightAware ADS-B
Thu 10:27:28 AM 52.6213 -2.1107 149° Southeast 448 516 28,900 -2,066 Descending FlightAware ADS-B
Thu 10:27:58 AM 52.5667 -2.0560 149° Southeast 442 509 27,900 -1,967 Descending FlightAware ADS-B
Thu 10:28:29 AM 52.5145 -2.0039 149° Southeast 436 502 26,900 -1,967 Descending FlightAware ADS-B
Thu 10:28:59 AM 52.4633 -1.9533 149° Southeast 429 494 25,900 -2,000 Descending FlightAware ADS-B
Thu 10:29:29 AM 52.4123 -1.9036 150° Southeast 423 487 24,900 -1,920 Descending FlightAware ADS-B
Thu 10:29:49 AM 52.3779 -1.8717 155° Southeast 418 481 24,300 -1,846 Descending FlightAware ADS-B
Thu 10:29:55 AM 52.3685 -1.8646 160° South 415 478 24,100 -1,875 Descending FlightAware ADS-B
Thu 10:30:05 AM 52.3502 -1.8539 165° South 411 473 23,800 -1,350 Descending FlightAware ADS-B
Thu 10:30:35 AM 52.2959 -1.8309 166° South 399 459 23,200 -1,100 Descending FlightAware ADS-B
Thu 10:31:05 AM 52.2426 -1.8085 165° South 384 442 22,700 -1,429 Descending FlightAware ADS-B
Thu 10:31:38 AM 52.1877 -1.7852 165° South 383 441 21,700 -2,095 Descending FlightAware ADS-B
Thu 10:32:08 AM 52.1354 -1.7628 165° South 392 451 20,500 -2,000 Descending FlightAware ADS-B
Thu 10:32:38 AM 52.0828 -1.7400 165° South 384 442 19,700 -1,556 Descending FlightAware ADS-B
Thu 10:33:02 AM 52.0431 -1.7226 161° South 379 436 19,100 -1,688 Descending FlightAware ADS-B
Thu 10:33:10 AM 52.0305 -1.7155 154° Southeast 379 436 18,800 -1,895 Descending FlightAware ADS-B
Thu 10:33:21 AM 52.0123 -1.7010 147° Southeast 381 438 18,500 -1,800 Descending FlightAware ADS-B
Thu 10:33:30 AM 51.9996 -1.6873 139° Southeast 382 440 18,200 -1,800 Descending FlightAware ADS-B
Thu 10:33:41 AM 51.9850 -1.6668 133° Southeast 382 440 17,900 -1,412 Descending FlightAware ADS-B
Thu 10:33:47 AM 51.9776 -1.6538 126° Southeast 383 441 17,800 -1,765 Descending FlightAware ADS-B
Thu 10:33:58 AM 51.9662 -1.6283 117° Southeast 385 443 17,400 -1,941 Descending FlightAware ADS-B
Thu 10:34:21 AM 51.9474 -1.5686 113° Southeast 385 443 16,700 -1,886 Descending FlightAware ADS-B
Thu 10:34:33 AM 51.9390 -1.5368 111° Southeast 386 444 16,300 -1,680 Descending FlightAware ADS-B
Thu 10:34:46 AM 51.9310 -1.5023 115° Southeast 383 441 16,000 -1,615 Descending FlightAware ADS-B
Thu 10:34:59 AM 51.9210 -1.4671 118° Southeast 380 437 15,600 -1,459 Descending FlightAware ADS-B
Thu 10:35:23 AM 51.9012 -1.4076 116° Southeast 376 433 15,100 -900 Descending FlightAware ADS-B
Thu 10:35:39 AM 51.8895 -1.3681 110° East 378 435 15,000 -286 Descending FlightAware ADS-B
Thu 10:35:44 AM 51.8864 -1.3543 107° East 379 436 15,000 -343 Level FlightAware ADS-B
Thu 10:36:14 AM 51.8712 -1.2731 108° East 377 434 14,800 -590 Descending FlightAware ADS-B
Thu 10:36:45 AM 51.8552 -1.1941 108° East 361 415 14,400 -968 Descending FlightAware ADS-B
Thu 10:37:16 AM 51.8392 -1.1137 108° East 353 406 13,800 -1,355 Descending FlightAware ADS-B
Thu 10:37:47 AM 51.8239 -1.0370 108° East 352 405 13,000 -1,065 Descending FlightAware ADS-B
Thu 10:38:18 AM 51.8090 -0.9616 108° East 334 384 12,700 -393 Descending FlightAware ADS-B
Thu 10:38:48 AM 51.7950 -0.8913 108° East 316 364 12,600 -590 Descending FlightAware ADS-B
Thu 10:39:19 AM 51.7816 -0.8242 108° East 312 359 12,100 -980 Descending FlightAware ADS-B
Thu 10:39:37 AM 51.7735 -0.7841 108° East 310 357 11,800 -1,125 Descending FlightAware ADS-B
Thu 10:40:07 AM 51.7600 -0.7173 108° East 308 354 11,200 -787 Descending FlightAware ADS-B
Thu 10:40:38 AM 51.7466 -0.6509 108° East 294 338 11,000 -197 Descending FlightAware ADS-B
Thu 10:41:08 AM 51.7344 -0.5901 109° East 275 316 11,000  Level FlightAware ADS-B
Thu 10:41:26 AM 51.7275 -0.5569 110° East 268 308 11,000  Level FlightAware ADS-B
Thu 10:41:29 AM 51.7261 -0.5506 118° Southeast 267 307 11,000  Level FlightAware ADS-B
Thu 10:41:35 AM 51.7231 -0.5415 126° Southeast 261 300 11,000  Level FlightAware ADS-B
Thu 10:41:39 AM 51.7199 -0.5345 134° Southeast 254 292 11,000  Level FlightAware ADS-B
Thu 10:41:44 AM 51.7165 -0.5289 141° Southeast 250 288 11,000  Level FlightAware ADS-B
Thu 10:41:47 AM 51.7133 -0.5247 146° Southeast 246 283 11,000  Level FlightAware ADS-B
Thu 10:41:51 AM 51.7096 -0.5207 152° Southeast 242 278 11,000  Level FlightAware ADS-B
Thu 10:41:55 AM 51.7057 -0.5172 158° South 238 274 11,000  Level FlightAware ADS-B
Thu 10:42:01 AM 51.6999 -0.5135 166° South 231 266 11,000  Level FlightAware ADS-B
Thu 10:42:05 AM 51.6958 -0.5119 171° South 227 261 11,000  Level FlightAware ADS-B
Thu 10:42:09 AM 51.6915 -0.5108 178° South 223 257 11,000  Level FlightAware ADS-B
Thu 10:42:15 AM 51.6855 -0.5105 185° South 219 252 11,000  Level FlightAware ADS-B
Thu 10:42:19 AM 51.6816 -0.5110 190° South 217 250 11,000  Level FlightAware ADS-B
Thu 10:42:22 AM 51.6787 -0.5118 195° South 214 246 11,000  Level FlightAware ADS-B
Thu 10:42:27 AM 51.6735 -0.5141 205° Southwest 213 245 11,000  Level FlightAware ADS-B
Thu 10:42:36 AM 51.6660 -0.5197 212° Southwest 210 242 11,000  Level FlightAware ADS-B
Thu 10:42:39 AM 51.6632 -0.5225 217° Southwest 210 242 11,000  Level FlightAware ADS-B
Thu 10:42:44 AM 51.6598 -0.5267 224° Southwest 210 242 11,000  Level FlightAware ADS-B
Thu 10:42:48 AM 51.6566 -0.5317 232° Southwest 209 241 11,000  Level FlightAware ADS-B
Thu 10:42:55 AM 51.6526 -0.5400 239° Southwest 209 241 11,000  Level FlightAware ADS-B
Thu 10:42:59 AM 51.6505 -0.5456 246° West 209 241 11,000  Level FlightAware ADS-B
Thu 10:43:03 AM 51.6491 -0.5507 251° West 211 243 11,000  Level FlightAware ADS-B
Thu 10:43:08 AM 51.6473 -0.5590 259° West 213 245 11,000  Level FlightAware ADS-B
Thu 10:43:14 AM 51.6462 -0.5678 264° West 215 247 11,000  Level FlightAware ADS-B
Thu 10:43:20 AM 51.6458 -0.5742 273° West 217 250 11,000  Level FlightAware ADS-B
Thu 10:43:27 AM 51.6461 -0.5842 280° West 220 253 11,000  Level FlightAware ADS-B
Thu 10:43:31 AM 51.6468 -0.5907 285° West 224 258 11,000  Level FlightAware ADS-B
Thu 10:43:35 AM 51.6481 -0.5985 292° West 227 261 11,000  Level FlightAware ADS-B
Thu 10:43:40 AM 51.6501 -0.6063 299° West 231 266 11,000  Level FlightAware ADS-B
Thu 10:43:45 AM 51.6532 -0.6154 298° West 233 268 11,000  Level FlightAware ADS-B
Thu 10:43:51 AM 51.6565 -0.6255 291° West 231 266 11,000  Level FlightAware ADS-B
Thu 10:43:56 AM 51.6584 -0.6336 290° West 227 261 11,000  Level FlightAware ADS-B
Thu 10:44:09 AM 51.6632 -0.6550 293° West 229 264 11,000  Level FlightAware ADS-B
Thu 10:44:18 AM 51.6668 -0.6685 295° West 229 264 11,000  Level FlightAware ADS-B
Thu 10:44:41 AM 51.6775 -0.7048 297° West 233 268 11,000  Level FlightAware ADS-B
Thu 10:44:51 AM 51.6821 -0.7192 302° West 233 268 11,000  Level FlightAware ADS-B
Thu 10:44:55 AM 51.6849 -0.7264 313° West 237 273 11,000  Level FlightAware ADS-B
Thu 10:45:01 AM 51.6893 -0.7339 322° Northwest 244 281 11,000  Level FlightAware ADS-B
Thu 10:45:06 AM 51.6932 -0.7388 329° Northwest 247 284 11,000  Level FlightAware ADS-B
Thu 10:45:12 AM 51.6996 -0.7449 337° Northwest 252 290 11,000  Level FlightAware ADS-B
Thu 10:45:19 AM 51.7077 -0.7504 345° North 260 299 11,000  Level FlightAware ADS-B
Thu 10:45:24 AM 51.7128 -0.7526 354° North 264 304 11,000  Level FlightAware ADS-B
Thu 10:45:31 AM 51.7216 -0.7541 North 270 311 11,000  Level FlightAware ADS-B
Thu 10:45:36 AM 51.7281 -0.7534 14° North 275 316 11,000  Level FlightAware ADS-B
Thu 10:45:43 AM 51.7368 -0.7499 25° Northeast 280 322 11,000  Level FlightAware ADS-B
Thu 10:45:49 AM 51.7439 -0.7446 34° Northeast 285 328 11,000  Level FlightAware ADS-B
Thu 10:45:53 AM 51.7482 -0.7399 40° Northeast 285 328 11,000  Level FlightAware ADS-B
Thu 10:45:56 AM 51.7512 -0.7358 46° Northeast 285 328 11,000  Level FlightAware ADS-B
Thu 10:46:00 AM 51.7543 -0.7306 53° Northeast 285 328 11,000  Level FlightAware ADS-B
Thu 10:46:04 AM 51.7577 -0.7232 60° Northeast 282 325 11,000 -667 Level FlightAware ADS-B
Thu 10:46:09 AM 51.7607 -0.7148 69° East 281 323 10,900 -1,500 Descending FlightAware ADS-B
Thu 10:46:12 AM 51.7622 -0.7086 75° East 281 323 10,800 -1,714 Descending FlightAware ADS-B
Thu 10:46:16 AM 51.7637 -0.6998 84° East 280 322 10,700 -1,500 Descending FlightAware ADS-B
Thu 10:46:20 AM 51.7642 -0.6924 90° East 278 320 10,600 -1,333 Descending FlightAware ADS-B
Thu 10:46:25 AM 51.7642 -0.6817 100° East 274 315 10,500 -1,091 Descending FlightAware ADS-B
Thu 10:46:31 AM 51.7630 -0.6707 111° Southeast 271 312 10,400 -1,500 Descending FlightAware ADS-B
Thu 10:46:37 AM 51.7602 -0.6587 117° Southeast 265 305 10,200 -1,333 Descending FlightAware ADS-B
Thu 10:46:49 AM 51.7538 -0.6382 115° Southeast 267 307 10,000 -1,071 Descending FlightAware ADS-B
Thu 10:47:05 AM 51.7451 -0.6087 117° Southeast 268 308 9,700 -968 Descending FlightAware ADS-B
Thu 10:47:20 AM 51.7367 -0.5820 117° Southeast 266 306 9,500 -720 Descending FlightAware ADS-B
Thu 10:47:30 AM 51.7312 -0.5650 120° Southeast 262 302 9,400 -429 Descending FlightAware ADS-B
Thu 10:47:34 AM 51.7286 -0.5576 125° Southeast 260 299 9,400 -545 Level FlightAware ADS-B
Thu 10:47:41 AM 51.7237 -0.5463 135° Southeast 253 291 9,300 -1,000 Descending FlightAware ADS-B
Thu 10:47:46 AM 51.7198 -0.5400 144° Southeast 245 282 9,200 -1,091 Descending FlightAware ADS-B
Thu 10:47:52 AM 51.7150 -0.5344 151° Southeast 238 274 9,100 -545 Descending FlightAware ADS-B
Thu 10:47:57 AM 51.7101 -0.5300 152° Southeast 232 267 9,100 -462 Level FlightAware ADS-B
Thu 10:48:05 AM 51.7025 -0.5234 143° Southeast 233 268 9,000 -462 Descending FlightAware ADS-B
Thu 10:48:10 AM 51.6977 -0.5175 137° Southeast 241 277 9,000  Level FlightAware ADS-B
Thu 10:48:14 AM 51.6950 -0.5134 128° Southeast 247 284 9,000  Level FlightAware ADS-B
Thu 10:48:17 AM 51.6926 -0.5085 123° Southeast 253 291 9,000  Level FlightAware ADS-B
Thu 10:48:21 AM 51.6899 -0.5017 118° Southeast 260 299 9,000 -857 Level FlightAware ADS-B
Thu 10:48:24 AM 51.6882 -0.4965 112° Southeast 264 304 8,900 -750 Descending FlightAware ADS-B
Thu 10:48:29 AM 51.6863 -0.4888 110° East 269 310 8,900 -750 Level FlightAware ADS-B
Thu 10:48:40 AM 51.6816 -0.4676 108° East 271 312 8,700 -889 Descending FlightAware ADS-B
Thu 10:48:56 AM 51.6754 -0.4369 108° East 266 306 8,500 -774 Descending FlightAware ADS-B
Thu 10:49:11 AM 51.6694 -0.4078 109° East 264 304 8,300 -581 Descending FlightAware ADS-B
Thu 10:49:27 AM 51.6634 -0.3797 110° East 260 299 8,200 -563 Descending FlightAware ADS-B
Thu 10:49:43 AM 51.6570 -0.3507 110° East 258 297 8,000 -414 Descending FlightAware ADS-B
Thu 10:49:56 AM 51.6514 -0.3261 110° East 262 302 8,000  Level FlightAware ADS-B
Thu 10:50:12 AM 51.6450 -0.2972 109° East 263 303 8,000  Level FlightAware ADS-B
Thu 10:50:28 AM 51.6386 -0.2678 110° East 267 307 8,000 -171 Level FlightAware ADS-B
Thu 10:50:47 AM 51.6308 -0.2326 113° Southeast 269 310 7,900 -261 Descending FlightAware ADS-B
Thu 10:50:51 AM 51.6285 -0.2238 117° Southeast 267 307 7,900 -857 Level FlightAware ADS-B
Thu 10:51:01 AM 51.6233 -0.2072 119° Southeast 266 306 7,700 -1,059 Descending FlightAware ADS-B
Thu 10:51:08 AM 51.6189 -0.1946 125° Southeast 265 305 7,600 -923 Descending FlightAware ADS-B
Thu 10:51:14 AM 51.6146 -0.1847 131° Southeast 260 299 7,500 -818 Descending FlightAware ADS-B
Thu 10:51:30 AM 51.6029 -0.1627 132° Southeast 255 293 7,300 -968 Descending FlightAware ADS-B
Thu 10:51:45 AM 51.5909 -0.1412 132° Southeast 257 296 7,000 -1,000 Descending FlightAware ADS-B
Thu 10:52:00 AM 51.5787 -0.1197 133° Southeast 259 298 6,800 -968 Descending FlightAware ADS-B
Thu 10:52:16 AM 51.5659 -0.0973 132° Southeast 251 289 6,500 -1,161 Descending FlightAware ADS-B
Thu 10:52:31 AM 51.5544 -0.0768 132° Southeast 241 277 6,200 -563 Descending FlightAware ADS-B
Thu 10:52:48 AM 51.5426 -0.0555 141° Southeast 218 251 6,200 -279 Level FlightAware ADS-B
Thu 10:53:14 AM 51.5243 -0.0318 168° South 176 203 6,000 -529 Descending FlightAware ADS-B
Thu 10:53:22 AM 51.5179 -0.0295 171° South 171 197 5,900 -923 Descending FlightAware ADS-B
Thu 10:53:27 AM 51.5142 -0.0286 174° South 172 198 5,800 -1,091 Descending FlightAware ADS-B
Thu 10:53:33 AM 51.5099 -0.0278 180° South 170 196 5,700 -1,333 Descending FlightAware ADS-B
Thu 10:53:36 AM 51.5073 -0.0278 190° South 167 192 5,600 -1,714 Descending FlightAware ADS-B
Thu 10:53:40 AM 51.5038 -0.0288 213° Southwest 165 190 5,500 -1,059 Descending FlightAware ADS-B
Thu 10:53:53 AM 51.4966 -0.0363 237° Southwest 157 181 5,300 -947 Descending FlightAware ADS-B
Thu 10:53:59 AM 51.4942 -0.0422 247° West 158 182 5,200 -632 Descending FlightAware ADS-B
Thu 10:54:12 AM 51.4903 -0.0568 248° West 160 184 5,100 -706 Descending FlightAware ADS-B
Thu 10:54:33 AM 51.4848 -0.0792 247° West 154 177 4,800 -973 Descending FlightAware ADS-B
Thu 10:54:49 AM 51.4803 -0.0961 248° West 150 173 4,500 -857 Descending FlightAware ADS-B
Thu 10:55:08 AM 51.4754 -0.1154 248° West 150 173 4,300 -529 Descending FlightAware ADS-B
Thu 10:55:23 AM 51.4716 -0.1308 248° West 149 171 4,200 -444 Descending FlightAware ADS-B
Thu 10:55:35 AM 51.4685 -0.1432 247° West 146 168 4,100 -667 Descending FlightAware ADS-B
Thu 10:55:41 AM 51.4669 -0.1492 256° West 145 167 4,000 -800 Descending FlightAware ADS-B
Thu 10:55:50 AM 51.4655 -0.1580 265° West 149 171 3,900 -429 Descending FlightAware ADS-B
Thu 10:55:55 AM 51.4652 -0.1641 270° West 152 175 3,900 -818 Level FlightAware ADS-B
Thu 10:56:12 AM 51.4651 -0.1829 271° West 153 176 3,600 -938 Descending FlightAware ADS-B
Thu 10:56:27 AM 51.4652 -0.1997 271° West 147 169 3,400 -769 Descending FlightAware ADS-B
Thu 10:56:51 AM 51.4654 -0.2255 270° West 145 167 3,100 -837 Descending FlightAware ADS-B
Thu 10:57:10 AM 51.4654 -0.2459 270° West 146 168 2,800 -833 Descending FlightAware ADS-B
Thu 10:57:27 AM 51.4654 -0.2643 276° West 143 165 2,600 -706 Descending FlightAware ADS-B
Thu 11:05:15 AM 51.5627 -2.0479 95° East  Level Estimated
Thu 11:06:15 AM 51.4667 -0.4500 95° East  Level FlightAware Approximate

Login

Don't have an account? Register now (free) for customized features, flight alerts, and more!